createdAt,value
2019-05-19T00:01:06.588Z,0
2019-05-19T00:02:20.407Z,0
2019-05-19T00:03:34.606Z,0
2019-05-19T00:04:48.781Z,0
2019-05-19T00:06:02.971Z,0
2019-05-19T00:07:17.136Z,0
2019-05-19T00:08:31.335Z,0
2019-05-19T00:09:45.495Z,0
2019-05-19T00:10:59.678Z,0
2019-05-19T00:12:13.928Z,0
2019-05-19T00:13:32.252Z,0
2019-05-19T00:14:42.197Z,0
2019-05-19T00:15:56.394Z,0
2019-05-19T00:17:10.558Z,0
2019-05-19T00:18:24.805Z,0
2019-05-19T00:19:38.909Z,0
2019-05-19T00:20:53.084Z,0
2019-05-19T00:22:07.258Z,0
2019-05-19T00:23:21.520Z,0
2019-05-19T00:24:35.638Z,0
2019-05-19T00:25:49.825Z,0
2019-05-19T00:27:03.977Z,0
2019-05-19T00:28:18.158Z,0
2019-05-19T00:29:32.339Z,0
2019-05-19T00:30:46.531Z,0
2019-05-19T00:32:00.709Z,0
2019-05-19T00:33:14.894Z,0
2019-05-19T00:34:29.107Z,0
2019-05-19T00:35:43.260Z,0
2019-05-19T00:36:57.568Z,0
2019-05-19T00:38:11.624Z,0
2019-05-19T00:39:25.858Z,0
2019-05-19T00:40:39.994Z,0
2019-05-19T00:41:54.200Z,0
2019-05-19T00:43:08.367Z,0
2019-05-19T00:44:22.610Z,0
2019-05-19T00:45:36.752Z,0
2019-05-19T00:46:50.932Z,0
2019-05-19T00:48:05.111Z,0
2019-05-19T00:49:19.318Z,0
2019-05-19T00:50:33.582Z,0
2019-05-19T00:51:47.755Z,0
2019-05-19T00:53:01.869Z,0
2019-05-19T00:54:16.124Z,0
2019-05-19T00:55:36.215Z,0
2019-05-19T00:56:44.416Z,0
2019-05-19T00:57:58.596Z,0
2019-05-19T00:59:12.782Z,0
2019-05-19T01:00:26.975Z,0
2019-05-19T01:01:41.143Z,0
2019-05-19T01:02:55.330Z,0
2019-05-19T01:04:09.500Z,0
2019-05-19T01:05:23.764Z,0
2019-05-19T01:06:37.906Z,0
2019-05-19T01:07:52.124Z,0
2019-05-19T01:09:06.233Z,0
2019-05-19T01:10:20.416Z,0
2019-05-19T01:11:34.686Z,0
2019-05-19T01:12:48.780Z,0
2019-05-19T01:14:02.994Z,0
2019-05-19T01:15:17.137Z,0
2019-05-19T01:16:31.347Z,0
2019-05-19T01:17:50.580Z,0
2019-05-19T01:18:59.718Z,0
2019-05-19T01:20:13.987Z,0
2019-05-19T01:21:28.055Z,0
2019-05-19T01:22:42.237Z,0
2019-05-19T01:23:56.617Z,0
2019-05-19T01:25:10.607Z,0
2019-05-19T01:26:24.789Z,0
2019-05-19T01:27:38.969Z,0
2019-05-19T01:28:53.150Z,0
2019-05-19T01:30:07.321Z,0
2019-05-19T01:31:21.544Z,0
2019-05-19T01:32:35.681Z,0
2019-05-19T01:33:49.898Z,0
2019-05-19T01:35:04.055Z,0
2019-05-19T01:36:18.265Z,0
2019-05-19T01:37:32.890Z,0
2019-05-19T01:38:51.345Z,0
2019-05-19T01:40:00.835Z,0
2019-05-19T01:41:14.957Z,0
2019-05-19T01:42:29.145Z,0
2019-05-19T01:43:43.424Z,0
2019-05-19T01:44:57.513Z,0
2019-05-19T01:46:11.704Z,0
2019-05-19T01:47:25.912Z,0
2019-05-19T01:48:40.074Z,0
2019-05-19T01:49:54.325Z,0
2019-05-19T01:51:08.447Z,0
2019-05-19T01:52:22.653Z,0
2019-05-19T01:53:36.836Z,0
2019-05-19T01:54:51.114Z,0
2019-05-19T01:56:05.203Z,0
2019-05-19T01:57:19.396Z,0
2019-05-19T01:58:33.643Z,0
2019-05-19T01:59:47.770Z,0
2019-05-19T02:01:01.988Z,0
2019-05-19T02:02:16.137Z,0
2019-05-19T02:03:30.317Z,0
2019-05-19T02:04:44.508Z,0
2019-05-19T02:05:58.694Z,0
2019-05-19T02:07:12.885Z,0
2019-05-19T02:08:27.150Z,0
2019-05-19T02:09:41.256Z,0
2019-05-19T02:10:55.445Z,0
2019-05-19T02:12:09.743Z,0
2019-05-19T02:13:23.813Z,0
2019-05-19T02:14:38.205Z,0
2019-05-19T02:15:52.195Z,0
2019-05-19T02:17:06.407Z,0
2019-05-19T02:18:20.571Z,0
2019-05-19T02:19:34.883Z,0
2019-05-19T02:20:48.934Z,0
2019-05-19T02:22:03.123Z,0
2019-05-19T02:23:17.298Z,0
2019-05-19T02:24:35.511Z,0
2019-05-19T02:25:49.748Z,0
2019-05-19T02:26:59.878Z,0
2019-05-19T02:28:14.151Z,0
2019-05-19T02:29:28.269Z,0
2019-05-19T02:30:42.451Z,0
2019-05-19T02:31:56.633Z,0
2019-05-19T02:33:10.806Z,0
2019-05-19T02:34:25.023Z,0
2019-05-19T02:35:39.199Z,0
2019-05-19T02:36:53.409Z,0
2019-05-19T02:38:07.656Z,0
2019-05-19T02:39:21.812Z,0
2019-05-19T02:40:35.964Z,0
2019-05-19T02:41:50.153Z,0
2019-05-19T02:43:04.422Z,0
2019-05-19T02:44:18.533Z,0
2019-05-19T02:45:32.714Z,0
2019-05-19T02:46:46.920Z,0
2019-05-19T02:48:01.200Z,0
2019-05-19T02:49:15.269Z,0
2019-05-19T02:50:29.506Z,0
2019-05-19T02:51:43.689Z,0
2019-05-19T02:52:57.855Z,0
2019-05-19T02:54:12.132Z,0
2019-05-19T02:55:26.227Z,0
2019-05-19T02:56:40.419Z,0
2019-05-19T02:57:54.620Z,0
2019-05-19T02:59:10.428Z,0
2019-05-19T03:00:22.978Z,0
2019-05-19T03:01:37.168Z,0
2019-05-19T03:02:51.348Z,0
2019-05-19T03:04:05.545Z,0
2019-05-19T03:05:19.719Z,0
2019-05-19T03:06:33.918Z,0
2019-05-19T03:07:48.172Z,0
2019-05-19T03:09:02.296Z,0
2019-05-19T03:10:16.507Z,0
2019-05-19T03:11:30.797Z,0
2019-05-19T03:12:44.865Z,0
2019-05-19T03:13:59.060Z,0
2019-05-19T03:15:13.245Z,0
2019-05-19T03:16:27.427Z,5
2019-05-19T03:17:41.644Z,5
2019-05-19T03:18:55.834Z,5
2019-05-19T03:20:10.140Z,5
2019-05-19T03:21:24.227Z,5
2019-05-19T03:22:38.431Z,5
2019-05-19T03:23:52.631Z,5
2019-05-19T03:25:06.926Z,5
2019-05-19T03:26:21.002Z,11
2019-05-19T03:27:35.217Z,11
2019-05-19T03:28:49.421Z,11
2019-05-19T03:30:03.606Z,11
2019-05-19T03:31:17.837Z,11
2019-05-19T03:32:32.056Z,16
2019-05-19T03:33:46.237Z,16
2019-05-19T03:35:00.417Z,16
2019-05-19T03:36:14.969Z,16
2019-05-19T03:37:28.781Z,22
2019-05-19T03:38:43.043Z,22
2019-05-19T03:39:57.544Z,22
2019-05-19T03:41:11.346Z,28
2019-05-19T03:42:25.540Z,28
2019-05-19T03:43:39.729Z,33
2019-05-19T03:44:53.922Z,33
2019-05-19T03:46:08.104Z,33
2019-05-19T03:48:36.568Z,39
2019-05-19T03:49:50.673Z,45
2019-05-19T03:51:04.840Z,45
2019-05-19T03:52:19.048Z,50
2019-05-19T03:53:33.209Z,50
2019-05-19T03:54:47.426Z,56
2019-05-19T03:56:01.583Z,61
2019-05-19T03:57:15.749Z,61
2019-05-19T03:58:30.021Z,67
2019-05-19T03:59:44.201Z,67
2019-05-19T04:00:58.358Z,73
2019-05-19T04:02:12.448Z,78
2019-05-19T04:03:26.651Z,73
2019-05-19T04:04:40.806Z,78
2019-05-19T04:05:54.999Z,84
2019-05-19T04:07:09.150Z,90
2019-05-19T04:08:23.434Z,90
2019-05-19T04:09:37.584Z,95
2019-05-19T04:10:51.744Z,101
2019-05-19T04:12:05.860Z,101
2019-05-19T04:13:20.038Z,106
2019-05-19T04:14:34.203Z,112
2019-05-19T04:15:48.368Z,118
2019-05-19T04:17:02.540Z,123
2019-05-19T04:18:16.811Z,123
2019-05-19T04:19:30.895Z,129
2019-05-19T04:20:45.110Z,129
2019-05-19T04:21:59.221Z,135
2019-05-19T04:23:13.404Z,135
2019-05-19T04:24:27.580Z,135
2019-05-19T04:25:41.785Z,135
2019-05-19T04:26:55.946Z,140
2019-05-19T04:28:10.132Z,140
2019-05-19T04:29:24.282Z,146
2019-05-19T04:30:38.493Z,146
2019-05-19T04:31:52.640Z,151
2019-05-19T04:33:06.791Z,146
2019-05-19T04:34:20.962Z,151
2019-05-19T04:35:35.158Z,157
2019-05-19T04:36:49.306Z,157
2019-05-19T04:38:03.491Z,163
2019-05-19T04:39:17.639Z,174
2019-05-19T04:40:31.816Z,180
2019-05-19T04:41:45.996Z,185
2019-05-19T04:43:00.151Z,191
2019-05-19T04:44:14.326Z,202
2019-05-19T04:45:28.583Z,208
2019-05-19T04:46:42.674Z,208
2019-05-19T04:47:56.838Z,208
2019-05-19T04:49:11.093Z,213
2019-05-19T04:50:25.192Z,213
2019-05-19T04:51:39.326Z,225
2019-05-19T04:52:53.483Z,230
2019-05-19T04:54:07.786Z,230
2019-05-19T04:55:21.955Z,230
2019-05-19T04:56:35.991Z,230
2019-05-19T04:57:50.130Z,236
2019-05-19T04:59:04.310Z,241
2019-05-19T05:00:18.457Z,241
2019-05-19T05:01:32.623Z,241
2019-05-19T05:02:46.752Z,241
2019-05-19T05:04:00.912Z,247
2019-05-19T05:05:15.070Z,253
2019-05-19T05:06:29.360Z,258
2019-05-19T05:07:43.396Z,264
2019-05-19T05:08:57.558Z,270
2019-05-19T05:10:11.784Z,281
2019-05-19T05:11:25.843Z,281
2019-05-19T05:12:39.995Z,292
2019-05-19T05:13:54.141Z,298
2019-05-19T05:15:08.299Z,309
2019-05-19T05:16:22.573Z,315
2019-05-19T05:17:36.818Z,320
2019-05-19T05:18:50.849Z,326
2019-05-19T05:20:04.893Z,331
2019-05-19T05:21:19.046Z,337
2019-05-19T05:22:33.204Z,348
2019-05-19T05:23:47.370Z,360
2019-05-19T05:25:02.579Z,371
2019-05-19T05:26:15.646Z,376
2019-05-19T05:27:29.863Z,382
2019-05-19T05:28:44.164Z,399
2019-05-19T05:29:58.112Z,410
2019-05-19T05:31:12.353Z,433
2019-05-19T05:32:26.390Z,444
2019-05-19T05:33:40.536Z,444
2019-05-19T05:34:54.674Z,433
2019-05-19T05:36:08.809Z,438
2019-05-19T05:37:22.963Z,450
2019-05-19T05:38:37.101Z,455
2019-05-19T05:39:51.318Z,466
2019-05-19T05:41:05.380Z,483
2019-05-19T05:42:19.516Z,489
2019-05-19T05:43:33.773Z,506
2019-05-19T05:44:47.794Z,511
2019-05-19T05:46:01.935Z,511
2019-05-19T05:47:16.139Z,506
2019-05-19T05:48:30.214Z,506
2019-05-19T05:49:44.338Z,523
2019-05-19T05:50:58.472Z,528
2019-05-19T05:52:12.581Z,528
2019-05-19T05:53:26.716Z,534
2019-05-19T05:54:40.845Z,534
2019-05-19T05:55:55.055Z,523
2019-05-19T05:57:09.089Z,528
2019-05-19T05:58:23.222Z,528
2019-05-19T05:59:37.377Z,528
2019-05-19T06:00:51.579Z,528
2019-05-19T06:02:05.601Z,551
2019-05-19T06:03:19.736Z,545
2019-05-19T06:04:33.860Z,562
2019-05-19T06:05:48.057Z,551
2019-05-19T06:07:02.162Z,556
2019-05-19T06:08:16.261Z,562
2019-05-19T06:09:30.368Z,568
2019-05-19T06:10:44.482Z,556
2019-05-19T06:11:58.545Z,556
2019-05-19T06:13:12.661Z,568
2019-05-19T06:14:26.772Z,573
2019-05-19T06:15:40.868Z,590
2019-05-19T06:16:54.985Z,607
2019-05-19T06:18:09.101Z,624
2019-05-19T06:19:23.182Z,641
2019-05-19T06:20:37.391Z,658
2019-05-19T06:21:51.420Z,686
2019-05-19T06:23:05.500Z,697
2019-05-19T06:24:19.599Z,697
2019-05-19T06:25:33.722Z,703
2019-05-19T06:26:48.261Z,720
2019-05-19T06:28:01.903Z,731
2019-05-19T06:29:16.009Z,753
2019-05-19T06:30:30.117Z,753
2019-05-19T06:31:44.307Z,804
2019-05-19T06:32:58.411Z,821
2019-05-19T06:34:12.418Z,855
2019-05-19T06:35:26.504Z,871
2019-05-19T06:36:40.634Z,888
2019-05-19T06:37:54.723Z,911
2019-05-19T06:39:08.967Z,905
2019-05-19T06:40:22.892Z,894
2019-05-19T06:41:37.961Z,855
2019-05-19T06:42:51.571Z,866
2019-05-19T06:44:05.832Z,900
2019-05-19T06:45:19.369Z,860
2019-05-19T06:46:33.352Z,765
2019-05-19T06:47:47.430Z,765
2019-05-19T06:49:01.549Z,804
2019-05-19T06:50:15.727Z,765
2019-05-19T06:51:29.720Z,753
2019-05-19T06:52:43.807Z,793
2019-05-19T06:53:57.904Z,759
2019-05-19T06:55:12.085Z,765
2019-05-19T06:56:26.105Z,759
2019-05-19T06:57:40.294Z,736
2019-05-19T06:58:54.314Z,742
2019-05-19T07:00:08.404Z,781
2019-05-19T07:01:22.507Z,815
2019-05-19T07:02:36.699Z,810
2019-05-19T07:03:50.724Z,804
2019-05-19T07:05:07.163Z,821
2019-05-19T07:06:21.034Z,832
2019-05-19T07:07:32.953Z,832
2019-05-19T07:08:47.202Z,826
2019-05-19T07:10:01.344Z,849
2019-05-19T07:11:22.144Z,838
2019-05-19T07:12:29.344Z,793
2019-05-19T07:13:43.446Z,759
2019-05-19T07:14:57.670Z,742
2019-05-19T07:16:11.668Z,731
2019-05-19T07:17:25.732Z,725
2019-05-19T07:18:39.840Z,714
2019-05-19T07:19:53.928Z,720
2019-05-19T07:21:08.051Z,714
2019-05-19T07:22:22.155Z,725
2019-05-19T07:23:36.222Z,725
2019-05-19T07:24:50.412Z,742
2019-05-19T07:26:04.515Z,776
2019-05-19T07:27:18.551Z,821
2019-05-19T07:28:32.642Z,849
2019-05-19T07:29:46.767Z,883
2019-05-19T07:31:00.856Z,916
2019-05-19T07:32:14.969Z,984
2019-05-19T07:33:29.071Z,1001
2019-05-19T07:34:43.170Z,1125
2019-05-19T07:35:57.392Z,1051
2019-05-19T07:37:11.362Z,990
2019-05-19T07:38:25.433Z,961
2019-05-19T07:39:39.528Z,939
2019-05-19T07:40:54.905Z,950
2019-05-19T07:42:07.711Z,961
2019-05-19T07:43:21.803Z,1029
2019-05-19T07:44:35.888Z,1001
2019-05-19T07:45:51.066Z,961
2019-05-19T07:47:04.152Z,973
2019-05-19T07:48:18.176Z,978
2019-05-19T07:49:32.265Z,973
2019-05-19T07:50:51.383Z,1057
2019-05-19T07:52:00.412Z,995
2019-05-19T07:53:14.509Z,1001
2019-05-19T07:54:28.668Z,1023
2019-05-19T07:55:42.656Z,1018
2019-05-19T07:56:56.754Z,1012
2019-05-19T07:58:10.840Z,1012
2019-05-19T07:59:24.929Z,1012
2019-05-19T08:00:39.062Z,1012
2019-05-19T08:01:53.111Z,1018
2019-05-19T08:03:07.227Z,1029
2019-05-19T08:04:21.310Z,1040
2019-05-19T08:05:35.391Z,1080
2019-05-19T08:06:49.491Z,1153
2019-05-19T08:08:03.621Z,1276
2019-05-19T08:09:21.254Z,1327
2019-05-19T08:10:31.753Z,1445
2019-05-19T08:11:45.896Z,1501
2019-05-19T08:12:59.908Z,1569
2019-05-19T08:14:13.988Z,1693
2019-05-19T08:15:28.041Z,1805
2019-05-19T08:16:42.110Z,1963
2019-05-19T08:17:56.194Z,2227
2019-05-19T08:19:10.206Z,2311
2019-05-19T08:20:24.271Z,2283
2019-05-19T08:21:38.302Z,2351
2019-05-19T08:22:52.449Z,2227
2019-05-19T08:24:06.454Z,2199
2019-05-19T08:25:20.459Z,2216
2019-05-19T08:26:36.208Z,2317
2019-05-19T08:27:48.537Z,2323
2019-05-19T08:29:02.542Z,2418
2019-05-19T08:30:16.637Z,2227
2019-05-19T08:31:30.606Z,2053
2019-05-19T08:32:44.613Z,1248
2019-05-19T08:33:58.688Z,1299
2019-05-19T08:35:12.716Z,1456
2019-05-19T08:36:26.845Z,1288
2019-05-19T08:37:40.946Z,1839
2019-05-19T08:40:08.997Z,2160
2019-05-19T08:41:22.948Z,2131
2019-05-19T08:42:36.988Z,1890
2019-05-19T08:43:51.035Z,1788
2019-05-19T08:45:05.076Z,1771
2019-05-19T08:46:19.120Z,1788
2019-05-19T08:47:33.189Z,2103
2019-05-19T08:48:47.266Z,2176
2019-05-19T08:50:01.242Z,2345
2019-05-19T08:51:15.251Z,2407
2019-05-19T08:52:30.727Z,1873
2019-05-19T08:53:43.296Z,1440
2019-05-19T08:55:00.359Z,1057
2019-05-19T08:56:11.361Z,1147
2019-05-19T08:57:25.452Z,961
2019-05-19T08:58:39.434Z,905
2019-05-19T08:59:53.500Z,866
2019-05-19T09:01:07.674Z,928
2019-05-19T09:02:21.685Z,1046
2019-05-19T09:04:49.788Z,945
2019-05-19T09:06:03.841Z,978
2019-05-19T09:07:17.893Z,1546
2019-05-19T09:08:31.947Z,1833
2019-05-19T09:09:51.004Z,2255
2019-05-19T09:11:04.636Z,2385
2019-05-19T09:12:14.134Z,2525
2019-05-19T09:13:28.181Z,2705
2019-05-19T09:14:42.402Z,2722
2019-05-19T09:15:56.257Z,2896
2019-05-19T09:17:10.305Z,2835
2019-05-19T09:18:24.342Z,2688
2019-05-19T09:19:38.352Z,2705
2019-05-19T09:20:57.236Z,2745
2019-05-19T09:22:06.444Z,2632
2019-05-19T09:23:20.387Z,2728
2019-05-19T09:24:34.411Z,2486
2019-05-19T09:25:48.416Z,2418
2019-05-19T09:27:02.454Z,1996
2019-05-19T09:28:16.453Z,2250
2019-05-19T09:30:44.501Z,2137
2019-05-19T09:33:12.602Z,2868
2019-05-19T09:34:26.567Z,2891
2019-05-19T09:35:40.547Z,2750
2019-05-19T09:36:54.602Z,2626
2019-05-19T09:38:09.938Z,2424
2019-05-19T09:39:22.725Z,2295
2019-05-19T09:40:36.710Z,2711
2019-05-19T09:41:50.638Z,2913
2019-05-19T09:43:04.673Z,3093
2019-05-19T09:44:18.791Z,3003
2019-05-19T09:46:46.661Z,2981
2019-05-19T09:48:00.676Z,2795
2019-05-19T09:49:14.675Z,3009
2019-05-19T09:50:28.804Z,2525
2019-05-19T09:51:42.822Z,2795
2019-05-19T09:52:56.705Z,2677
2019-05-19T09:54:10.712Z,2902
2019-05-19T09:55:24.811Z,2930
2019-05-19T09:56:38.740Z,2671
2019-05-19T09:57:53.190Z,2446
2019-05-19T09:59:06.811Z,2930
2019-05-19T10:00:20.775Z,3133
2019-05-19T10:01:34.755Z,3189
2019-05-19T10:02:48.764Z,3189
2019-05-19T10:04:02.754Z,2739
2019-05-19T10:06:30.798Z,2598
2019-05-19T10:07:44.783Z,2621
2019-05-19T10:08:58.793Z,2413
2019-05-19T10:10:12.793Z,2418
2019-05-19T10:11:26.832Z,1732
2019-05-19T10:12:40.825Z,1980
2019-05-19T10:13:54.872Z,2199
2019-05-19T10:15:08.881Z,2261
2019-05-19T10:16:22.937Z,2430
2019-05-19T10:17:36.911Z,1440
2019-05-19T10:18:51.080Z,1884
2019-05-19T10:20:04.954Z,1209
2019-05-19T10:21:19.154Z,1288
2019-05-19T10:22:33.099Z,1276
2019-05-19T10:23:47.076Z,1057
2019-05-19T10:25:01.119Z,1046
2019-05-19T10:26:15.248Z,1023
2019-05-19T10:27:29.369Z,1378
2019-05-19T10:28:43.262Z,2160
2019-05-19T10:29:57.309Z,2880
2019-05-19T10:31:11.333Z,3060
2019-05-19T10:32:25.362Z,3380
2019-05-19T10:33:39.375Z,3560
2019-05-19T10:34:53.397Z,3808
2019-05-19T10:36:07.403Z,4123
2019-05-19T10:37:21.496Z,4128
2019-05-19T10:38:35.391Z,3757
2019-05-19T10:39:49.409Z,2998
2019-05-19T10:41:03.395Z,1608
2019-05-19T10:42:17.419Z,1198
2019-05-19T10:43:31.490Z,1091
2019-05-19T10:44:45.543Z,1136
2019-05-19T10:45:59.478Z,1018
2019-05-19T10:47:13.509Z,939
2019-05-19T10:48:27.559Z,956
2019-05-19T10:49:41.655Z,967
2019-05-19T10:50:57.499Z,1012
2019-05-19T10:52:10.823Z,1125
2019-05-19T10:53:23.766Z,1355
2019-05-19T10:54:37.899Z,1878
2019-05-19T10:55:51.907Z,1260
2019-05-19T10:57:06.215Z,1338
2019-05-19T10:58:20.130Z,1406
2019-05-19T10:59:34.105Z,1541
2019-05-19T11:00:48.153Z,3746
2019-05-19T11:02:02.188Z,3926
2019-05-19T11:03:16.325Z,3515
2019-05-19T11:04:30.233Z,3549
2019-05-19T11:05:44.403Z,2773
2019-05-19T11:06:58.281Z,3937
2019-05-19T11:08:12.312Z,3420
2019-05-19T11:09:26.331Z,3718
2019-05-19T11:10:40.675Z,3217
2019-05-19T11:11:54.341Z,3757
2019-05-19T11:13:08.336Z,3847
2019-05-19T11:14:22.346Z,3808
2019-05-19T11:15:36.391Z,3757
2019-05-19T11:16:50.462Z,3650
2019-05-19T11:18:04.380Z,3796
2019-05-19T11:19:18.399Z,3870
2019-05-19T11:20:32.464Z,3864
2019-05-19T11:21:46.402Z,1192
2019-05-19T11:23:00.418Z,1125
2019-05-19T11:24:14.455Z,1102
2019-05-19T11:25:31.743Z,1119
2019-05-19T11:26:42.507Z,1153
2019-05-19T11:29:10.720Z,3740
2019-05-19T11:30:24.649Z,4033
2019-05-19T11:31:38.681Z,3768
2019-05-19T11:32:52.729Z,2671
2019-05-19T11:34:06.925Z,1220
2019-05-19T11:36:34.855Z,1895
2019-05-19T11:37:48.820Z,1181
2019-05-19T11:39:02.859Z,1170
2019-05-19T11:40:21.034Z,1181
2019-05-19T11:41:31.168Z,1164
2019-05-19T11:42:45.258Z,1164
2019-05-19T11:43:59.089Z,1175
2019-05-19T11:45:13.177Z,1586
2019-05-19T11:46:27.240Z,1822
2019-05-19T11:47:41.274Z,1698
2019-05-19T11:48:55.328Z,1569
2019-05-19T11:50:09.508Z,1451
2019-05-19T11:51:23.460Z,1344
2019-05-19T11:52:37.530Z,2508
2019-05-19T11:53:51.666Z,2975
2019-05-19T11:55:05.648Z,3487
2019-05-19T11:56:19.664Z,3465
2019-05-19T11:57:33.733Z,3088
2019-05-19T11:58:47.743Z,2953
2019-05-19T12:00:01.792Z,2283
2019-05-19T12:01:15.820Z,2216
2019-05-19T12:02:30.678Z,1839
2019-05-19T12:03:44.019Z,1350
2019-05-19T12:04:58.044Z,1164
2019-05-19T12:06:11.999Z,1243
2019-05-19T12:07:26.093Z,1383
2019-05-19T12:08:40.128Z,1417
2019-05-19T12:09:54.147Z,1243
2019-05-19T12:11:08.219Z,1130
2019-05-19T12:12:22.386Z,1040
2019-05-19T12:13:36.324Z,1012
2019-05-19T12:14:50.474Z,1001
2019-05-19T12:16:04.633Z,2480
2019-05-19T12:17:18.551Z,1153
2019-05-19T12:18:32.718Z,1085
2019-05-19T12:19:46.699Z,1046
2019-05-19T12:21:00.764Z,1051
2019-05-19T12:22:14.931Z,1136
2019-05-19T12:23:28.936Z,1181
2019-05-19T12:24:43.087Z,1260
2019-05-19T12:27:11.158Z,3943
2019-05-19T12:28:25.223Z,3948
2019-05-19T12:29:39.290Z,3864
2019-05-19T12:30:53.431Z,3836
2019-05-19T12:32:07.593Z,3988
2019-05-19T12:33:21.483Z,4218
2019-05-19T12:34:35.481Z,4336
2019-05-19T12:35:49.521Z,4365
2019-05-19T12:37:03.531Z,4353
2019-05-19T12:38:17.533Z,3172
2019-05-19T12:39:31.560Z,3110
2019-05-19T12:40:45.551Z,3701
2019-05-19T12:41:59.579Z,2610
2019-05-19T12:43:13.690Z,2559
2019-05-19T12:44:27.616Z,3796
2019-05-19T12:45:41.736Z,3577
2019-05-19T12:46:55.670Z,1485
2019-05-19T12:48:09.695Z,1524
2019-05-19T12:49:23.732Z,1372
2019-05-19T12:51:51.786Z,1119
2019-05-19T12:53:05.902Z,1085
2019-05-19T12:54:20.590Z,1080
2019-05-19T12:55:34.048Z,1108
2019-05-19T12:56:48.068Z,1231
2019-05-19T12:58:02.055Z,1524
2019-05-19T12:59:16.108Z,3504
2019-05-19T13:00:30.168Z,3510
2019-05-19T13:01:44.235Z,3498
2019-05-19T13:02:58.254Z,3858
2019-05-19T13:05:26.347Z,3931
2019-05-19T13:06:40.340Z,4179
2019-05-19T13:07:54.383Z,4258
2019-05-19T13:09:08.384Z,4050
2019-05-19T13:10:22.445Z,4066
2019-05-19T13:11:36.651Z,3808
2019-05-19T13:12:50.426Z,2908
2019-05-19T13:14:04.440Z,1158
2019-05-19T13:15:20.425Z,1029
2019-05-19T13:16:32.519Z,950
2019-05-19T13:17:46.549Z,905
2019-05-19T13:19:00.588Z,849
2019-05-19T13:20:14.736Z,804
2019-05-19T13:21:28.691Z,787
2019-05-19T13:22:42.749Z,793
2019-05-19T13:23:56.791Z,815
2019-05-19T13:25:10.853Z,849
2019-05-19T13:26:24.904Z,849
2019-05-19T13:27:38.995Z,821
2019-05-19T13:28:53.052Z,781
2019-05-19T13:30:07.132Z,720
2019-05-19T13:31:21.287Z,658
2019-05-19T13:32:35.289Z,590
2019-05-19T13:33:49.345Z,545
2019-05-19T13:35:03.442Z,517
2019-05-19T13:36:17.510Z,489
2019-05-19T13:37:31.591Z,466
2019-05-19T13:38:45.687Z,450
2019-05-19T13:41:13.838Z,438
2019-05-19T13:42:27.925Z,450
2019-05-19T13:43:42.023Z,455
2019-05-19T13:44:56.192Z,483
2019-05-19T13:46:10.211Z,500
2019-05-19T13:47:24.271Z,506
2019-05-19T13:48:38.372Z,517
2019-05-19T13:49:52.459Z,523
2019-05-19T13:51:06.716Z,528
2019-05-19T13:52:20.621Z,528
2019-05-19T13:53:34.719Z,528
2019-05-19T13:54:48.808Z,528
2019-05-19T13:56:02.909Z,517
2019-05-19T13:57:16.997Z,517
2019-05-19T13:58:31.093Z,506
2019-05-19T13:59:45.189Z,495
2019-05-19T14:00:59.358Z,483
2019-05-19T14:02:13.376Z,478
2019-05-19T14:03:27.502Z,466
2019-05-19T14:04:41.581Z,455
2019-05-19T14:05:55.684Z,438
2019-05-19T14:07:09.794Z,433
2019-05-19T14:08:23.934Z,421
2019-05-19T14:09:38.002Z,399
2019-05-19T14:10:52.199Z,376
2019-05-19T14:12:06.209Z,360
2019-05-19T14:13:20.340Z,331
2019-05-19T14:14:34.526Z,303
2019-05-19T14:15:48.595Z,275
2019-05-19T14:18:16.768Z,236
2019-05-19T14:20:45.000Z,219
2019-05-19T14:21:59.085Z,191
2019-05-19T14:23:13.200Z,180
2019-05-19T14:24:27.319Z,168
2019-05-19T14:25:41.423Z,168
2019-05-19T14:26:55.523Z,174
2019-05-19T14:28:09.649Z,185
2019-05-19T14:29:23.756Z,202
2019-05-19T14:30:37.870Z,219
2019-05-19T14:31:52.009Z,230
2019-05-19T14:33:06.084Z,236
2019-05-19T14:34:20.221Z,241
2019-05-19T14:35:34.319Z,236
2019-05-19T14:36:48.451Z,230
2019-05-19T14:38:02.577Z,219
2019-05-19T14:39:20.539Z,208
2019-05-19T14:40:30.885Z,196
2019-05-19T14:42:59.037Z,180
2019-05-19T14:44:13.168Z,174
2019-05-19T14:45:27.310Z,174
2019-05-19T14:46:41.434Z,163
2019-05-19T14:47:55.552Z,163
2019-05-19T14:49:09.673Z,157
2019-05-19T14:50:23.807Z,157
2019-05-19T14:51:37.994Z,157
2019-05-19T14:52:52.071Z,163
2019-05-19T14:54:06.226Z,163
2019-05-19T14:55:20.346Z,174
2019-05-19T14:56:34.495Z,191
2019-05-19T14:57:48.608Z,208
2019-05-19T14:59:02.748Z,225
2019-05-19T15:00:16.892Z,236
2019-05-19T15:01:31.015Z,253
2019-05-19T15:03:59.288Z,270
2019-05-19T15:05:13.555Z,275
2019-05-19T15:06:27.566Z,286
2019-05-19T15:07:41.700Z,298
2019-05-19T15:08:55.828Z,303
2019-05-19T15:10:09.978Z,315
2019-05-19T15:11:24.120Z,320
2019-05-19T15:12:38.248Z,331
2019-05-19T15:13:52.466Z,331
2019-05-19T15:15:06.621Z,331
2019-05-19T15:16:20.652Z,337
2019-05-19T15:17:34.799Z,337
2019-05-19T15:18:49.017Z,337
2019-05-19T15:20:03.085Z,343
2019-05-19T15:21:17.191Z,348
2019-05-19T15:22:31.345Z,354
2019-05-19T15:23:45.488Z,365
2019-05-19T15:25:01.467Z,360
2019-05-19T15:26:13.749Z,354
2019-05-19T15:27:27.892Z,354
2019-05-19T15:28:42.146Z,348
2019-05-19T15:29:56.197Z,343
2019-05-19T15:31:10.438Z,331
2019-05-19T15:32:24.453Z,326
2019-05-19T15:33:38.678Z,320
2019-05-19T15:34:52.754Z,315
2019-05-19T15:36:06.949Z,315
2019-05-19T15:37:21.043Z,298
2019-05-19T15:38:35.177Z,292
2019-05-19T15:41:03.428Z,275
2019-05-19T15:42:17.552Z,270
2019-05-19T15:43:31.677Z,264
2019-05-19T15:44:50.754Z,253
2019-05-19T15:46:00.009Z,247
2019-05-19T15:47:14.098Z,241
2019-05-19T15:48:28.223Z,230
2019-05-19T15:49:42.357Z,213
2019-05-19T15:50:56.489Z,196
2019-05-19T15:52:10.638Z,180
2019-05-19T15:53:24.769Z,163
2019-05-19T15:54:39.241Z,151
2019-05-19T15:55:53.049Z,140
2019-05-19T15:57:07.178Z,129
2019-05-19T15:58:21.427Z,112
2019-05-19T15:59:35.471Z,106
2019-05-19T16:00:49.624Z,95
2019-05-19T16:02:03.865Z,90
2019-05-19T16:03:17.893Z,90
2019-05-19T16:04:32.046Z,90
2019-05-19T16:05:46.474Z,90
2019-05-19T16:07:00.370Z,90
2019-05-19T16:08:14.482Z,95
2019-05-19T16:09:28.659Z,101
2019-05-19T16:10:42.789Z,112
2019-05-19T16:11:56.915Z,118
2019-05-19T16:13:11.089Z,129
2019-05-19T16:14:25.204Z,135
2019-05-19T16:15:39.364Z,135
2019-05-19T16:16:53.511Z,135
2019-05-19T16:18:07.792Z,135
2019-05-19T16:19:22.978Z,135
2019-05-19T16:20:35.945Z,135
2019-05-19T16:21:50.187Z,129
2019-05-19T16:23:04.245Z,129
2019-05-19T16:24:18.416Z,129
2019-05-19T16:25:32.661Z,135
2019-05-19T16:26:46.687Z,140
2019-05-19T16:28:00.887Z,146
2019-05-19T16:29:14.990Z,151
2019-05-19T16:30:29.161Z,168
2019-05-19T16:31:43.293Z,185
2019-05-19T16:32:57.550Z,208
2019-05-19T16:34:11.600Z,230
2019-05-19T16:35:25.744Z,264
2019-05-19T16:36:39.886Z,292
2019-05-19T16:37:54.040Z,315
2019-05-19T16:39:08.177Z,343
2019-05-19T16:40:22.416Z,376
2019-05-19T16:41:36.554Z,399
2019-05-19T16:42:50.690Z,421
2019-05-19T16:44:04.853Z,438
2019-05-19T16:45:18.879Z,455
2019-05-19T16:46:33.016Z,466
2019-05-19T16:47:47.158Z,466
2019-05-19T16:49:01.314Z,472
2019-05-19T16:50:15.447Z,472
2019-05-19T16:51:29.752Z,483
2019-05-19T16:52:43.700Z,489
2019-05-19T16:53:57.840Z,500
2019-05-19T16:55:12.002Z,506
2019-05-19T16:56:26.145Z,511
2019-05-19T16:57:40.331Z,511
2019-05-19T16:58:54.390Z,511
2019-05-19T17:00:12.575Z,517
2019-05-19T17:01:22.691Z,511
2019-05-19T17:02:36.803Z,511
2019-05-19T17:03:50.938Z,511
2019-05-19T17:05:05.072Z,511
2019-05-19T17:06:19.284Z,517
2019-05-19T17:07:33.324Z,517
2019-05-19T17:08:47.467Z,523
2019-05-19T17:10:01.616Z,545
2019-05-19T17:11:15.752Z,568
2019-05-19T17:12:29.862Z,579
2019-05-19T17:13:44.104Z,568
2019-05-19T17:14:58.125Z,517
2019-05-19T17:16:12.331Z,500
2019-05-19T17:17:26.438Z,517
2019-05-19T17:18:40.565Z,528
2019-05-19T17:19:54.625Z,545
2019-05-19T17:21:08.748Z,562
2019-05-19T17:22:22.882Z,579
2019-05-19T17:23:37.080Z,585
2019-05-19T17:24:51.117Z,590
2019-05-19T17:26:05.266Z,596
2019-05-19T17:27:19.359Z,596
2019-05-19T17:28:33.494Z,601